createdAt,value
2022-11-20T00:03:59.197Z,-5.03
2022-11-20T00:09:03.731Z,-5.11
2022-11-20T00:14:08.115Z,-5.14
2022-11-20T00:19:10.936Z,-5.14
2022-11-20T00:24:13.876Z,-5.13
2022-11-20T00:29:16.753Z,-5.08
2022-11-20T00:34:20.044Z,-5.10
2022-11-20T00:39:23.221Z,-5.08
2022-11-20T00:44:27.567Z,-5.06
2022-11-20T00:49:33.280Z,-5.01
2022-11-20T00:54:36.231Z,-5.01
2022-11-20T00:59:39.300Z,-5.02
2022-11-20T01:04:43.091Z,-5.00
2022-11-20T01:09:47.409Z,-4.93
2022-11-20T01:14:50.185Z,-4.86
2022-11-20T01:19:53.102Z,-4.88
2022-11-20T01:24:57.657Z,-4.90
2022-11-20T01:30:02.738Z,-4.92
2022-11-20T01:35:06.703Z,-4.95
2022-11-20T01:40:12.163Z,-5.01
2022-11-20T01:46:06.767Z,-5.04
2022-11-20T01:51:27.483Z,-5.06
2022-11-20T01:56:32.371Z,-5.05
2022-11-20T02:01:35.533Z,-4.99
2022-11-20T02:06:47.092Z,-4.88
2022-11-20T02:11:50.655Z,-4.81
2022-11-20T02:16:54.857Z,-4.80
2022-11-20T02:22:29.652Z,-4.77
2022-11-20T02:27:32.934Z,-4.75
2022-11-20T02:32:36.852Z,-4.78
2022-11-20T02:37:41.066Z,-4.72
2022-11-20T02:42:43.894Z,-4.66
2022-11-20T02:47:48.178Z,-4.62
2022-11-20T02:52:51.475Z,-4.64
2022-11-20T02:57:56.053Z,-4.71
2022-11-20T03:02:58.879Z,-4.75
2022-11-20T03:08:01.706Z,-4.75
2022-11-20T03:13:04.930Z,-4.69
2022-11-20T03:18:07.740Z,-4.67
2022-11-20T03:23:11.242Z,-4.66
2022-11-20T03:28:16.213Z,-4.66
2022-11-20T03:33:19.147Z,-4.71
2022-11-20T03:38:21.941Z,-4.68
2022-11-20T03:43:24.858Z,-4.63
2022-11-20T03:48:27.735Z,-4.63
2022-11-20T03:53:30.653Z,-4.70
2022-11-20T03:58:36.916Z,-4.80
2022-11-20T04:03:40.498Z,-4.81
2022-11-20T04:08:43.435Z,-4.83
2022-11-20T04:13:52.263Z,-4.91
2022-11-20T04:18:56.606Z,-4.99
2022-11-20T04:24:00.210Z,-5.12
2022-11-20T04:29:03.250Z,-5.33
2022-11-20T04:34:07.577Z,-5.40
2022-11-20T04:39:16.377Z,-5.41
2022-11-20T04:44:19.178Z,-5.40
2022-11-20T04:49:22.332Z,-5.45
2022-11-20T04:54:25.548Z,-5.52
2022-11-20T04:59:30.669Z,-5.57
2022-11-20T05:04:34.216Z,-5.57
2022-11-20T05:09:36.995Z,-5.63
2022-11-20T05:14:40.772Z,-5.72
2022-11-20T05:19:44.109Z,-5.76
2022-11-20T05:24:47.176Z,-5.79
2022-11-20T05:29:50.057Z,-5.86
2022-11-20T05:34:53.549Z,-6.05
2022-11-20T05:39:56.340Z,-6.10
2022-11-20T05:45:00.192Z,-6.12
2022-11-20T05:50:03.284Z,-6.14
2022-11-20T05:55:07.098Z,-6.20
2022-11-20T06:00:11.349Z,-6.15
2022-11-20T06:05:14.411Z,-6.07
2022-11-20T06:10:17.767Z,-6.13
2022-11-20T06:15:21.105Z,-6.19
2022-11-20T06:20:24.612Z,-6.19
2022-11-20T06:25:28.027Z,-6.19
2022-11-20T06:30:31.679Z,-6.18
2022-11-20T06:35:35.284Z,-6.17
2022-11-20T06:40:42.286Z,-6.15
2022-11-20T06:45:45.118Z,-6.13
2022-11-20T06:50:48.063Z,-6.10
2022-11-20T06:55:51.397Z,-6.06
2022-11-20T07:00:54.886Z,-6.05
2022-11-20T07:05:59.678Z,-6.02
2022-11-20T07:11:05.945Z,-5.91
2022-11-20T07:16:09.330Z,-5.82
2022-11-20T07:21:12.760Z,-5.75
2022-11-20T07:26:15.616Z,-5.66
2022-11-20T07:31:19.719Z,-5.58
2022-11-20T07:36:23.825Z,-5.46
2022-11-20T07:41:26.632Z,-5.32
2022-11-20T07:46:29.474Z,-5.21
2022-11-20T07:51:32.729Z,-5.08
2022-11-20T07:56:35.545Z,-5.01
2022-11-20T08:01:39.931Z,-4.88
2022-11-20T08:06:43.048Z,-4.75
2022-11-20T08:12:04.609Z,-4.62
2022-11-20T08:17:07.392Z,-4.54
2022-11-20T08:22:10.190Z,-4.49
2022-11-20T08:27:13.077Z,-4.38
2022-11-20T08:32:15.947Z,-4.21
2022-11-20T08:37:20.042Z,-4.01
2022-11-20T08:42:23.772Z,-3.86
2022-11-20T08:47:26.578Z,-3.73
2022-11-20T08:52:29.443Z,-3.54
2022-11-20T08:57:34.661Z,-3.34
2022-11-20T09:02:37.551Z,-3.22
2022-11-20T09:07:42.209Z,-3.13
2022-11-20T09:12:49.876Z,-3.07
2022-11-20T09:17:59.291Z,-2.96
2022-11-20T09:23:02.098Z,-2.86
2022-11-20T09:28:05.164Z,-2.78
2022-11-20T09:33:09.289Z,-2.67
2022-11-20T09:38:12.199Z,-2.57
2022-11-20T09:43:34.942Z,-2.45
2022-11-20T09:49:12.429Z,-2.30
2022-11-20T09:54:19.120Z,-2.19
2022-11-20T09:59:42.096Z,-2.12
2022-11-20T10:04:50.720Z,-2.03
2022-11-20T10:09:57.427Z,-1.91
2022-11-20T10:15:32.171Z,-1.77
2022-11-20T10:20:41.222Z,-1.66
2022-11-20T10:25:57.402Z,-1.60
2022-11-20T10:31:14.497Z,-1.52
2022-11-20T10:36:29.494Z,-1.38
2022-11-20T10:41:40.044Z,-1.26
2022-11-20T10:46:45.372Z,-1.18
2022-11-20T10:51:54.302Z,-1.09
2022-11-20T10:57:15.103Z,-1.00
2022-11-20T11:02:23.196Z,-0.96
2022-11-20T11:07:35.177Z,-0.85
2022-11-20T11:12:51.961Z,-0.74
2022-11-20T11:17:54.901Z,-0.64
2022-11-20T11:23:00.556Z,-0.61
2022-11-20T11:28:26.025Z,-0.57
2022-11-20T11:33:34.601Z,-0.52
2022-11-20T11:38:42.265Z,-0.41
2022-11-20T11:44:22.194Z,-0.32
2022-11-20T11:49:25.580Z,-0.26
2022-11-20T11:55:10.247Z,-0.22
2022-11-20T12:00:22.046Z,-0.17
2022-11-20T12:05:30.235Z,-0.12
2022-11-20T12:10:47.156Z,-0.07
2022-11-20T12:15:51.058Z,-0.02
2022-11-20T12:21:26.056Z,0.01
2022-11-20T12:26:58.270Z,0.04
2022-11-20T12:32:07.927Z,0.05
2022-11-20T12:37:56.418Z,0.04
2022-11-20T12:43:44.046Z,0.07
2022-11-20T12:49:12.339Z,0.16
2022-11-20T12:54:37.077Z,0.23
2022-11-20T13:00:11.902Z,0.23
2022-11-20T13:06:03.061Z,0.22
2022-11-20T13:11:32.676Z,0.20
2022-11-20T13:17:13.832Z,0.14
2022-11-20T13:22:28.663Z,0.11
2022-11-20T13:27:33.129Z,0.09
2022-11-20T13:32:36.199Z,0.04
2022-11-20T13:37:39.154Z,-0.02
2022-11-20T13:42:47.321Z,-0.08
2022-11-20T13:47:51.586Z,-0.06
2022-11-20T13:53:08.238Z,-0.02
2022-11-20T13:58:54.868Z,-0.04
2022-11-20T14:04:06.429Z,-0.14
2022-11-20T14:09:25.923Z,-0.26
2022-11-20T14:14:30.641Z,-0.41
2022-11-20T14:19:38.010Z,-0.47
2022-11-20T14:24:40.932Z,-0.51
2022-11-20T14:29:43.804Z,-0.58
2022-11-20T14:34:49.139Z,-0.67
2022-11-20T14:39:54.917Z,-0.77
2022-11-20T14:44:59.742Z,-0.81
2022-11-20T14:50:07.212Z,-0.90
2022-11-20T14:55:16.837Z,-1.00
2022-11-20T15:00:22.407Z,-1.11
2022-11-20T15:05:45.740Z,-1.24
2022-11-20T15:10:50.012Z,-1.31
2022-11-20T15:15:56.102Z,-1.36
2022-11-20T15:21:02.655Z,-1.45
2022-11-20T15:26:15.388Z,-1.55
2022-11-20T15:31:23.788Z,-1.60
2022-11-20T15:36:26.693Z,-1.58
2022-11-20T15:41:29.608Z,-1.55
2022-11-20T15:46:40.928Z,-1.61
2022-11-20T15:51:49.659Z,-1.71
2022-11-20T15:56:55.366Z,-1.82
2022-11-20T16:01:58.210Z,-1.86
2022-11-20T16:07:02.441Z,-1.89
2022-11-20T16:12:05.619Z,-1.95
2022-11-20T16:17:09.450Z,-2.06
2022-11-20T16:22:12.423Z,-2.10
2022-11-20T16:27:15.348Z,-2.00
2022-11-20T16:32:18.185Z,-1.88
2022-11-20T16:37:20.969Z,-1.87
2022-11-20T16:42:23.877Z,-1.87
2022-11-20T16:47:26.690Z,-1.86
2022-11-20T16:52:31.235Z,-1.80
2022-11-20T16:57:36.333Z,-1.74
2022-11-20T17:02:39.162Z,-1.73
2022-11-20T17:07:42.044Z,-1.70
2022-11-20T17:12:46.020Z,-1.73
2022-11-20T17:17:48.827Z,-1.71
2022-11-20T17:22:52.081Z,-1.73
2022-11-20T17:27:54.914Z,-1.84
2022-11-20T17:32:59.013Z,-1.96
2022-11-20T17:38:02.985Z,-2.05
2022-11-20T17:43:06.022Z,-2.09
2022-11-20T17:48:09.388Z,-2.11
2022-11-20T17:53:12.731Z,-2.23
2022-11-20T17:58:15.531Z,-2.32
2022-11-20T18:03:38.460Z,-2.35
2022-11-20T18:08:41.849Z,-2.37
2022-11-20T18:14:04.932Z,-2.41
2022-11-20T18:19:07.781Z,-2.50
2022-11-20T18:24:10.972Z,-2.54
2022-11-20T18:29:14.115Z,-2.57
2022-11-20T18:34:17.463Z,-2.64
2022-11-20T18:39:24.259Z,-2.74
2022-11-20T18:44:48.670Z,-2.82
2022-11-20T18:49:53.530Z,-2.85
2022-11-20T18:54:56.469Z,-2.89
2022-11-20T19:00:08.471Z,-2.92
2022-11-20T19:05:13.962Z,-2.93
2022-11-20T19:10:20.432Z,-2.92
2022-11-20T19:15:24.873Z,-2.94
2022-11-20T19:20:27.812Z,-2.84
2022-11-20T19:25:37.905Z,-2.77
2022-11-20T19:30:41.810Z,-2.71
2022-11-20T19:35:44.748Z,-2.65
2022-11-20T19:40:47.608Z,-2.54
2022-11-20T19:45:50.477Z,-2.45
2022-11-20T19:50:53.289Z,-2.46
2022-11-20T19:55:57.987Z,-2.39
2022-11-20T20:01:10.817Z,-2.31
2022-11-20T20:06:19.216Z,-2.22
2022-11-20T20:11:23.281Z,-2.18
2022-11-20T20:16:26.671Z,-2.23
2022-11-20T20:21:30.720Z,-2.23
2022-11-20T20:26:33.655Z,-2.17
2022-11-20T20:31:36.631Z,-2.10
2022-11-20T20:36:39.433Z,-2.04
2022-11-20T20:41:42.386Z,-2.06
2022-11-20T20:46:45.279Z,-2.05
2022-11-20T20:51:48.071Z,-2.03
2022-11-20T20:56:51.840Z,-1.95
2022-11-20T21:01:54.873Z,-1.89
2022-11-20T21:06:59.602Z,-1.88
2022-11-20T21:12:02.568Z,-1.87
2022-11-20T21:17:05.363Z,-1.83
2022-11-20T21:22:08.837Z,-1.79
2022-11-20T21:27:11.660Z,-1.79
2022-11-20T21:32:14.502Z,-1.80
2022-11-20T21:37:18.231Z,-1.76
2022-11-20T21:42:21.512Z,-1.72
2022-11-20T21:47:24.661Z,-1.75
2022-11-20T21:52:27.403Z,-1.78
2022-11-20T21:57:32.915Z,-1.78
2022-11-20T22:02:35.690Z,-1.78
2022-11-20T22:07:38.498Z,-1.82
2022-11-20T22:12:41.559Z,-1.86
2022-11-20T22:18:02.999Z,-1.87
2022-11-20T22:23:05.984Z,-1.86
2022-11-20T22:28:16.573Z,-1.88
2022-11-20T22:33:19.957Z,-1.93
2022-11-20T22:38:29.347Z,-1.99
2022-11-20T22:43:32.634Z,-2.03
2022-11-20T22:48:37.481Z,-2.08
2022-11-20T22:53:41.614Z,-2.14
2022-11-20T22:58:47.021Z,-2.25
2022-11-20T23:04:05.244Z,-2.35
2022-11-20T23:09:09.618Z,-2.41
2022-11-20T23:14:13.771Z,-2.53
2022-11-20T23:19:17.051Z,-2.65
2022-11-20T23:24:21.058Z,-2.71
2022-11-20T23:29:23.837Z,-2.80
2022-11-20T23:34:27.019Z,-2.91
2022-11-20T23:39:30.099Z,-2.96
2022-11-20T23:44:32.975Z,-2.96
2022-11-20T23:49:35.836Z,-3.03
2022-11-20T23:54:38.610Z,-3.05
2022-11-20T23:59:41.452Z,-3.02
